createdAt,value
2019-01-30T00:00:53.248Z,0.40
2019-01-30T00:03:19.994Z,0.30
2019-01-30T00:05:46.750Z,0.10
2019-01-30T00:08:13.368Z,0.30
2019-01-30T00:10:40.035Z,0.40
2019-01-30T00:13:06.640Z,0.60
2019-01-30T00:15:33.309Z,0.30
2019-01-30T00:17:59.958Z,0.50
2019-01-30T00:20:26.596Z,0.20
2019-01-30T00:22:53.219Z,0.30
2019-01-30T00:25:19.938Z,0.40
2019-01-30T00:27:46.604Z,0.20
2019-01-30T00:30:21.080Z,0.40
2019-01-30T00:32:47.772Z,0.30
2019-01-30T00:35:14.397Z,0.40
2019-01-30T00:37:41.064Z,0.00
2019-01-30T00:40:13.224Z,-0.30
2019-01-30T00:42:39.871Z,-0.10
2019-01-30T00:45:10.045Z,-0.30
2019-01-30T00:47:36.701Z,0.10
2019-01-30T00:50:09.688Z,0.10
2019-01-30T00:52:36.416Z,0.00
2019-01-30T00:55:05.381Z,0.10
2019-01-30T00:57:31.993Z,-0.20
2019-01-30T00:59:58.668Z,0.00
2019-01-30T01:02:25.392Z,0.10
2019-01-30T01:04:52.146Z,0.30
2019-01-30T01:07:18.775Z,0.30
2019-01-30T01:09:45.448Z,-0.10
2019-01-30T01:12:12.085Z,0.00
2019-01-30T01:14:38.709Z,0.10
2019-01-30T01:17:05.319Z,0.20
2019-01-30T01:19:31.981Z,0.50
2019-01-30T01:21:58.606Z,0.40
2019-01-30T01:24:25.264Z,0.40
2019-01-30T01:26:52.018Z,0.30
2019-01-30T01:29:18.643Z,0.60
2019-01-30T01:31:45.334Z,0.50
2019-01-30T01:34:12.000Z,0.40
2019-01-30T01:36:38.653Z,0.60
2019-01-30T01:39:06.111Z,0.80
2019-01-30T01:41:32.785Z,0.70
2019-01-30T01:43:59.536Z,0.80
2019-01-30T01:46:26.170Z,0.60
2019-01-30T01:48:52.841Z,0.80
2019-01-30T01:51:19.567Z,0.70
2019-01-30T01:53:46.219Z,0.70
2019-01-30T01:56:12.939Z,0.70
2019-01-30T01:58:39.606Z,0.60
2019-01-30T02:01:06.332Z,0.70
2019-01-30T02:06:13.473Z,0.70
2019-01-30T02:08:40.132Z,0.60
2019-01-30T02:11:06.775Z,0.50
2019-01-30T02:13:33.460Z,0.30
2019-01-30T02:16:00.199Z,0.40
2019-01-30T02:18:26.853Z,0.20
2019-01-30T02:20:53.512Z,0.30
2019-01-30T02:23:20.125Z,0.20
2019-01-30T02:25:46.789Z,-0.40
2019-01-30T02:28:13.441Z,-0.60
2019-01-30T02:30:47.009Z,-0.10
2019-01-30T02:33:08.580Z,-0.30
2019-01-30T02:35:35.231Z,-0.40
2019-01-30T02:38:01.866Z,0.00
2019-01-30T02:40:28.465Z,-0.20
2019-01-30T02:42:55.121Z,0.00
2019-01-30T02:45:23.500Z,0.30
2019-01-30T02:47:50.173Z,-0.10
2019-01-30T02:50:18.507Z,-0.50
2019-01-30T02:52:45.160Z,-0.60
2019-01-30T02:55:13.693Z,-0.60
2019-01-30T02:57:40.356Z,-0.50
2019-01-30T03:00:21.909Z,-0.10
2019-01-30T03:02:49.188Z,-0.90
2019-01-30T03:05:15.941Z,-0.80
2019-01-30T03:07:42.593Z,-1.00
2019-01-30T03:10:12.816Z,-1.10
2019-01-30T03:12:39.585Z,-0.90
2019-01-30T03:15:08.609Z,-0.60
2019-01-30T03:17:35.261Z,-0.50
2019-01-30T03:20:04.142Z,-0.50
2019-01-30T03:22:30.804Z,-0.70
2019-01-30T03:24:57.453Z,-0.70
2019-01-30T03:27:24.113Z,-0.40
2019-01-30T03:29:50.786Z,-0.70
2019-01-30T03:32:17.443Z,-0.60
2019-01-30T03:34:44.076Z,-0.70
2019-01-30T03:37:10.768Z,-0.70
2019-01-30T03:39:37.378Z,-1.20
2019-01-30T03:42:04.086Z,-0.60
2019-01-30T03:44:30.735Z,-0.50
2019-01-30T03:46:57.584Z,-0.60
2019-01-30T03:49:24.205Z,-0.50
2019-01-30T03:51:50.978Z,-0.50
2019-01-30T03:54:17.591Z,-0.70
2019-01-30T03:56:44.243Z,-0.90
2019-01-30T03:59:10.859Z,-1.10
2019-01-30T04:01:37.523Z,-0.60
2019-01-30T04:04:04.177Z,-0.60
2019-01-30T04:06:30.827Z,-0.20
2019-01-30T04:08:57.485Z,0.00
2019-01-30T04:11:24.154Z,0.20
2019-01-30T04:13:50.779Z,0.20
2019-01-30T04:16:17.424Z,0.30
2019-01-30T04:18:44.059Z,0.40
2019-01-30T04:21:10.728Z,0.50
2019-01-30T04:23:37.371Z,0.60
2019-01-30T04:26:04.127Z,0.60
2019-01-30T04:28:30.867Z,0.30
2019-01-30T04:30:57.505Z,0.50
2019-01-30T04:33:24.399Z,0.70
2019-01-30T04:35:51.016Z,0.60
2019-01-30T04:38:17.794Z,0.60
2019-01-30T04:40:44.598Z,0.60
2019-01-30T04:43:11.413Z,0.40
2019-01-30T04:45:38.031Z,0.30
2019-01-30T04:48:04.644Z,0.60
2019-01-30T04:50:31.292Z,0.50
2019-01-30T04:52:57.919Z,0.60
2019-01-30T04:55:24.593Z,0.60
2019-01-30T04:57:51.232Z,0.50
2019-01-30T05:00:21.053Z,0.60
2019-01-30T05:02:48.040Z,0.40
2019-01-30T05:05:14.702Z,0.40
2019-01-30T05:07:41.407Z,0.50
2019-01-30T05:10:10.225Z,0.60
2019-01-30T05:12:36.881Z,0.60
2019-01-30T05:15:09.725Z,0.70
2019-01-30T05:17:36.380Z,0.50
2019-01-30T05:20:06.199Z,0.40
2019-01-30T05:22:32.834Z,0.60
2019-01-30T05:24:59.483Z,0.60
2019-01-30T05:27:26.132Z,0.70
2019-01-30T05:29:52.784Z,0.50
2019-01-30T05:32:19.512Z,0.80
2019-01-30T05:34:46.263Z,0.80
2019-01-30T05:37:12.918Z,0.90
2019-01-30T05:39:39.632Z,0.90
2019-01-30T05:42:06.233Z,0.80
2019-01-30T05:44:32.862Z,0.70
2019-01-30T05:46:59.534Z,0.70
2019-01-30T05:49:26.173Z,0.70
2019-01-30T05:51:52.847Z,0.80
2019-01-30T05:54:19.442Z,0.60
2019-01-30T05:56:46.100Z,0.80
2019-01-30T05:59:12.718Z,0.70
2019-01-30T06:01:39.387Z,0.80
2019-01-30T06:04:06.004Z,0.60
2019-01-30T06:06:32.694Z,0.80
2019-01-30T06:08:59.339Z,1.00
2019-01-30T06:11:25.953Z,0.80
2019-01-30T06:13:52.607Z,1.00
2019-01-30T06:16:19.229Z,0.80
2019-01-30T06:18:45.884Z,0.80
2019-01-30T06:21:12.503Z,0.90
2019-01-30T06:23:39.167Z,0.90
2019-01-30T06:26:05.878Z,0.70
2019-01-30T06:28:32.567Z,0.70
2019-01-30T06:30:59.191Z,0.60
2019-01-30T06:33:25.833Z,0.70
2019-01-30T06:35:52.500Z,0.80
2019-01-30T06:38:19.137Z,1.00
2019-01-30T06:40:45.877Z,0.90
2019-01-30T06:43:12.489Z,0.80
2019-01-30T06:45:39.226Z,0.80
2019-01-30T06:48:06.007Z,0.70
2019-01-30T06:50:32.648Z,0.80
2019-01-30T06:52:59.321Z,1.00
2019-01-30T06:55:26.080Z,0.90
2019-01-30T06:57:52.753Z,0.90
2019-01-30T07:00:24.766Z,1.00
2019-01-30T07:02:51.993Z,0.80
2019-01-30T07:05:18.665Z,0.90
2019-01-30T07:07:45.336Z,0.80
2019-01-30T07:10:15.124Z,0.90
2019-01-30T07:12:41.749Z,0.80
2019-01-30T07:15:08.411Z,0.70
2019-01-30T07:17:35.220Z,0.80
2019-01-30T07:20:01.837Z,0.70
2019-01-30T07:22:28.492Z,0.70
2019-01-30T07:24:55.103Z,0.90
2019-01-30T07:27:21.788Z,0.90
2019-01-30T07:29:48.411Z,0.90
2019-01-30T07:32:15.068Z,0.80
2019-01-30T07:34:41.679Z,1.00
2019-01-30T07:37:08.337Z,1.00
2019-01-30T07:39:34.981Z,1.00
2019-01-30T07:42:01.600Z,0.90
2019-01-30T07:44:28.357Z,1.10
2019-01-30T07:46:54.976Z,1.10
2019-01-30T07:49:21.633Z,1.00
2019-01-30T07:51:48.272Z,1.00
2019-01-30T07:54:14.949Z,0.90
2019-01-30T07:56:41.589Z,1.00
2019-01-30T07:59:08.236Z,0.90
2019-01-30T08:01:34.855Z,1.10
2019-01-30T08:04:01.580Z,0.90
2019-01-30T08:06:28.235Z,1.00
2019-01-30T08:08:54.939Z,1.10
2019-01-30T08:11:21.597Z,1.10
2019-01-30T08:13:48.204Z,1.10
2019-01-30T08:16:14.869Z,1.00
2019-01-30T08:18:41.521Z,0.90
2019-01-30T08:21:08.182Z,1.10
2019-01-30T08:23:34.973Z,1.00
2019-01-30T08:26:01.841Z,1.30
2019-01-30T08:28:28.749Z,1.10
2019-01-30T08:30:55.756Z,1.30
2019-01-30T08:33:22.368Z,1.30
2019-01-30T08:35:49.011Z,1.40
2019-01-30T08:38:15.687Z,1.20
2019-01-30T08:40:42.320Z,1.30
2019-01-30T08:43:08.995Z,1.40
2019-01-30T08:45:35.633Z,1.50
2019-01-30T08:48:02.348Z,1.50
2019-01-30T08:50:29.313Z,1.30
2019-01-30T08:52:56.237Z,1.40
2019-01-30T08:55:22.948Z,1.50
2019-01-30T08:57:49.563Z,1.70
2019-01-30T09:00:22.149Z,1.70
2019-01-30T09:02:48.868Z,1.70
2019-01-30T09:05:15.480Z,1.50
2019-01-30T09:07:44.496Z,1.60
2019-01-30T09:10:14.321Z,1.50
2019-01-30T09:12:40.963Z,1.70
2019-01-30T09:15:10.892Z,1.80
2019-01-30T09:17:37.591Z,1.80
2019-01-30T09:20:07.893Z,1.70
2019-01-30T09:22:34.548Z,1.70
2019-01-30T09:25:01.164Z,1.40
2019-01-30T09:27:27.892Z,1.30
2019-01-30T09:29:54.509Z,1.70
2019-01-30T09:32:21.154Z,1.50
2019-01-30T09:34:47.888Z,1.70
2019-01-30T09:37:14.639Z,1.60
2019-01-30T09:39:41.303Z,1.60
2019-01-30T09:42:07.908Z,1.60
2019-01-30T09:44:34.571Z,1.80
2019-01-30T09:47:01.202Z,1.70
2019-01-30T09:49:27.857Z,1.70
2019-01-30T09:51:54.454Z,1.60
2019-01-30T09:54:21.120Z,1.60
2019-01-30T09:56:47.708Z,1.60
2019-01-30T09:59:14.366Z,1.70
2019-01-30T10:01:41.009Z,1.50
2019-01-30T10:04:07.738Z,1.70
2019-01-30T10:06:34.388Z,1.70
2019-01-30T10:09:01.034Z,1.60
2019-01-30T10:11:27.686Z,1.70
2019-01-30T10:13:54.305Z,1.70
2019-01-30T10:16:20.960Z,1.60
2019-01-30T10:18:47.616Z,1.60
2019-01-30T10:21:14.371Z,1.60
2019-01-30T10:23:41.085Z,1.70
2019-01-30T10:26:08.068Z,1.70
2019-01-30T10:28:34.728Z,1.30
2019-01-30T10:31:01.387Z,1.40
2019-01-30T10:33:28.135Z,1.40
2019-01-30T10:35:54.900Z,1.50
2019-01-30T10:38:21.575Z,1.40
2019-01-30T10:40:48.209Z,1.50
2019-01-30T10:43:14.882Z,1.20
2019-01-30T10:45:41.537Z,1.00
2019-01-30T10:48:08.201Z,1.10
2019-01-30T10:50:34.854Z,1.10
2019-01-30T10:53:01.517Z,1.10
2019-01-30T10:55:33.047Z,1.20
2019-01-30T10:58:01.088Z,1.30
2019-01-30T11:00:34.256Z,1.10
2019-01-30T11:03:00.869Z,0.90
2019-01-30T11:05:27.567Z,0.90
2019-01-30T11:07:54.421Z,1.10
2019-01-30T11:10:21.068Z,1.00
2019-01-30T11:12:47.715Z,1.20
2019-01-30T11:15:16.634Z,1.00
2019-01-30T11:17:43.304Z,1.20
2019-01-30T11:20:13.239Z,1.20
2019-01-30T11:22:39.883Z,1.10
2019-01-30T11:25:31.534Z,1.20
2019-01-30T11:27:58.228Z,1.40
2019-01-30T11:30:26.462Z,1.30
2019-01-30T11:32:55.444Z,1.20
2019-01-30T11:35:21.555Z,1.40
2019-01-30T11:37:48.180Z,1.50
2019-01-30T11:40:19.528Z,1.30
2019-01-30T11:42:46.163Z,1.60
2019-01-30T11:45:16.456Z,1.50
2019-01-30T11:47:43.070Z,1.40
2019-01-30T11:50:12.359Z,1.40
2019-01-30T11:52:39.008Z,1.50
2019-01-30T11:55:08.432Z,1.40
2019-01-30T11:57:35.082Z,1.40
2019-01-30T12:00:01.807Z,1.60
2019-01-30T12:02:28.464Z,1.60
2019-01-30T12:04:55.095Z,1.50
2019-01-30T12:07:21.760Z,1.40
2019-01-30T12:09:48.460Z,1.50
2019-01-30T12:12:15.116Z,1.80
2019-01-30T12:14:41.774Z,1.60
2019-01-30T12:17:08.472Z,1.80
2019-01-30T12:19:35.208Z,1.80
2019-01-30T12:22:01.879Z,1.70
2019-01-30T12:24:28.519Z,1.70
2019-01-30T12:27:08.496Z,1.70
2019-01-30T12:29:35.163Z,1.70
2019-01-30T12:32:02.202Z,1.80
2019-01-30T12:34:28.876Z,1.70
2019-01-30T12:36:55.561Z,1.70
2019-01-30T12:39:22.184Z,1.90
2019-01-30T12:41:48.796Z,2.00
2019-01-30T12:44:15.480Z,1.80
2019-01-30T12:46:42.143Z,1.90
2019-01-30T12:49:08.805Z,1.90
2019-01-30T12:51:36.270Z,1.80
2019-01-30T12:54:03.213Z,1.90
2019-01-30T12:56:29.840Z,1.90
2019-01-30T12:58:56.487Z,2.00
2019-01-30T13:01:23.099Z,2.10
2019-01-30T13:03:49.711Z,2.10
2019-01-30T13:06:16.463Z,2.10
2019-01-30T13:08:43.105Z,2.10
2019-01-30T13:11:09.745Z,2.10
2019-01-30T13:13:36.411Z,2.20
2019-01-30T13:16:03.385Z,2.30
2019-01-30T13:18:29.991Z,2.30
2019-01-30T13:20:56.685Z,2.30
2019-01-30T13:23:23.382Z,2.00
2019-01-30T13:25:50.027Z,2.30
2019-01-30T13:28:16.828Z,2.10
2019-01-30T13:30:43.904Z,2.20
2019-01-30T13:33:10.828Z,2.00
2019-01-30T13:35:37.765Z,2.20
2019-01-30T13:38:04.380Z,2.10
2019-01-30T13:40:33.744Z,2.40
2019-01-30T13:43:00.366Z,2.10
2019-01-30T13:45:27.949Z,2.00
2019-01-30T13:47:54.575Z,2.10
2019-01-30T13:50:23.360Z,2.30
2019-01-30T13:52:50.006Z,2.20
2019-01-30T13:55:16.671Z,2.30
2019-01-30T13:57:43.319Z,2.30
2019-01-30T14:00:19.698Z,2.20
2019-01-30T14:02:46.465Z,2.10
2019-01-30T14:05:13.183Z,2.40
2019-01-30T14:07:39.834Z,2.30
2019-01-30T14:10:08.454Z,2.30
2019-01-30T14:12:35.132Z,2.20
2019-01-30T14:15:01.883Z,2.30
2019-01-30T14:17:28.504Z,2.40
2019-01-30T14:19:55.149Z,2.50
2019-01-30T14:22:21.785Z,2.40
2019-01-30T14:24:48.468Z,2.40
2019-01-30T14:27:15.126Z,2.40
2019-01-30T14:29:41.924Z,2.30
2019-01-30T14:32:08.576Z,2.40
2019-01-30T14:34:35.246Z,2.40
2019-01-30T14:37:01.853Z,2.30
2019-01-30T14:39:28.517Z,2.40
2019-01-30T14:41:55.280Z,2.30
2019-01-30T14:44:21.900Z,2.20
2019-01-30T14:46:48.555Z,2.10
2019-01-30T14:49:15.224Z,2.10
2019-01-30T14:51:41.863Z,2.20
2019-01-30T14:54:08.458Z,2.20
2019-01-30T14:56:35.344Z,2.30
2019-01-30T14:59:01.948Z,2.30
2019-01-30T15:01:28.776Z,2.20
2019-01-30T15:03:55.418Z,2.30
2019-01-30T15:06:22.074Z,2.30
2019-01-30T15:08:48.645Z,2.20
2019-01-30T15:11:15.269Z,2.30
2019-01-30T15:13:41.959Z,2.30
2019-01-30T15:16:08.579Z,2.30
2019-01-30T15:18:35.231Z,2.20
2019-01-30T15:21:01.849Z,2.20
2019-01-30T15:23:28.542Z,2.30
2019-01-30T15:25:55.192Z,2.40
2019-01-30T15:28:21.840Z,2.30
2019-01-30T15:30:48.502Z,2.30
2019-01-30T15:33:34.920Z,2.40
2019-01-30T15:36:01.620Z,2.20
2019-01-30T15:38:28.293Z,2.10
2019-01-30T15:40:54.895Z,2.40
2019-01-30T15:43:21.659Z,2.40
2019-01-30T15:45:48.522Z,2.30
2019-01-30T15:48:15.128Z,2.50
2019-01-30T15:50:41.895Z,2.40
2019-01-30T15:53:13.301Z,2.20
2019-01-30T15:55:39.944Z,2.40
2019-01-30T15:58:08.916Z,2.30
2019-01-30T16:00:44.163Z,2.30
2019-01-30T16:03:11.057Z,2.50
2019-01-30T16:05:44.510Z,2.50
2019-01-30T16:08:06.707Z,2.50
2019-01-30T16:10:33.533Z,2.40
2019-01-30T16:13:00.210Z,2.40
2019-01-30T16:15:29.941Z,2.40
2019-01-30T16:17:56.644Z,2.50
2019-01-30T16:20:23.268Z,2.40
2019-01-30T16:22:50.096Z,2.30
2019-01-30T16:25:18.962Z,2.50
2019-01-30T16:27:45.656Z,2.30
2019-01-30T16:30:15.432Z,2.30
2019-01-30T16:32:42.256Z,2.40
2019-01-30T16:35:12.264Z,2.40
2019-01-30T16:37:39.039Z,2.40
2019-01-30T16:40:09.319Z,2.40
2019-01-30T16:42:36.208Z,2.40
2019-01-30T16:45:06.552Z,2.40
2019-01-30T16:47:33.159Z,2.40
2019-01-30T16:50:00.017Z,2.30
2019-01-30T16:52:26.805Z,2.50
2019-01-30T16:54:53.487Z,2.60
2019-01-30T16:57:20.264Z,2.60
2019-01-30T16:59:46.884Z,2.60
2019-01-30T17:02:13.552Z,2.50
2019-01-30T17:04:40.286Z,2.40
2019-01-30T17:07:06.905Z,2.40
2019-01-30T17:09:33.590Z,2.40
2019-01-30T17:12:00.598Z,2.40
2019-01-30T17:14:27.479Z,2.30
2019-01-30T17:16:54.211Z,2.40
2019-01-30T17:19:21.072Z,2.50
2019-01-30T17:21:47.793Z,2.50
2019-01-30T17:24:14.631Z,2.40
2019-01-30T17:26:41.449Z,2.50
2019-01-30T17:29:08.218Z,2.50
2019-01-30T17:31:34.819Z,2.50
2019-01-30T17:34:01.680Z,2.40
2019-01-30T17:36:28.460Z,2.40
2019-01-30T17:38:55.255Z,2.30
2019-01-30T17:41:21.993Z,2.40
2019-01-30T17:43:48.888Z,2.30
2019-01-30T17:46:15.603Z,2.40
2019-01-30T17:48:42.312Z,2.40
2019-01-30T17:51:09.144Z,2.40
2019-01-30T17:53:35.664Z,2.40
2019-01-30T17:56:02.358Z,2.50
2019-01-30T17:58:29.016Z,2.40
2019-01-30T18:00:57.517Z,2.50
2019-01-30T18:03:24.156Z,2.50
2019-01-30T18:05:50.919Z,2.50
2019-01-30T18:08:17.432Z,2.50
2019-01-30T18:10:44.003Z,2.50
2019-01-30T18:13:10.767Z,2.50
2019-01-30T18:15:37.271Z,2.50
2019-01-30T18:18:03.816Z,2.60
2019-01-30T18:20:30.435Z,2.40
2019-01-30T18:22:56.976Z,2.30
2019-01-30T18:25:23.539Z,2.10
2019-01-30T18:27:50.082Z,2.00
2019-01-30T18:30:18.331Z,1.80
2019-01-30T18:32:44.842Z,2.00
2019-01-30T18:35:11.793Z,2.10
2019-01-30T18:37:38.447Z,2.20
2019-01-30T18:40:11.152Z,2.30
2019-01-30T18:42:37.668Z,2.30
2019-01-30T18:45:10.365Z,2.30
2019-01-30T18:47:36.909Z,2.10
2019-01-30T18:50:07.053Z,2.20
2019-01-30T18:52:33.576Z,2.30
2019-01-30T18:55:00.181Z,2.10
2019-01-30T18:57:26.672Z,2.20
2019-01-30T18:59:53.228Z,2.30
2019-01-30T19:02:19.769Z,2.40
2019-01-30T19:04:46.328Z,2.30
2019-01-30T19:07:12.888Z,2.30
2019-01-30T19:09:39.416Z,2.30
2019-01-30T19:12:05.955Z,2.20
2019-01-30T19:14:32.507Z,2.30
2019-01-30T19:16:59.080Z,2.30
2019-01-30T19:19:25.592Z,2.20
2019-01-30T19:21:52.151Z,2.20
2019-01-30T19:24:19.884Z,2.40
2019-01-30T19:26:46.613Z,2.60
2019-01-30T19:29:13.170Z,2.40
2019-01-30T19:31:39.773Z,2.30
2019-01-30T19:34:06.335Z,2.30
2019-01-30T19:36:32.898Z,2.20
2019-01-30T19:38:59.488Z,2.30
2019-01-30T19:41:26.912Z,2.10
2019-01-30T19:43:53.501Z,2.20
2019-01-30T19:46:20.052Z,2.30
2019-01-30T19:48:46.592Z,2.20
2019-01-30T19:51:13.116Z,2.20
2019-01-30T19:53:39.672Z,2.20
2019-01-30T19:56:06.211Z,2.30
2019-01-30T19:58:32.738Z,2.50
2019-01-30T20:00:59.378Z,2.50
2019-01-30T20:03:26.084Z,2.50
2019-01-30T20:05:52.644Z,2.40
2019-01-30T20:08:19.254Z,2.40
2019-01-30T20:10:45.928Z,2.50
2019-01-30T20:13:12.446Z,2.30
2019-01-30T20:15:38.998Z,2.30
2019-01-30T20:18:06.236Z,2.40
2019-01-30T20:20:32.856Z,2.40
2019-01-30T20:22:59.460Z,2.30
2019-01-30T20:25:35.090Z,2.40
2019-01-30T20:28:01.806Z,2.20
2019-01-30T20:30:28.326Z,2.30
2019-01-30T20:32:54.884Z,2.40
2019-01-30T20:35:21.410Z,2.40
2019-01-30T20:37:48.393Z,2.40
2019-01-30T20:40:26.613Z,2.20
2019-01-30T20:42:53.490Z,2.30
2019-01-30T20:45:20.012Z,2.30
2019-01-30T20:47:46.567Z,2.20
2019-01-30T20:50:25.625Z,2.30
2019-01-30T20:52:52.176Z,2.20
2019-01-30T20:55:18.919Z,2.30
2019-01-30T20:57:45.428Z,2.30
2019-01-30T21:00:16.053Z,2.20
2019-01-30T21:02:42.566Z,2.30
2019-01-30T21:05:09.740Z,2.20
2019-01-30T21:07:37.398Z,2.10
2019-01-30T21:10:07.922Z,2.00
2019-01-30T21:12:34.456Z,1.90
2019-01-30T21:15:01.016Z,1.80
2019-01-30T21:17:27.536Z,1.80
2019-01-30T21:19:54.822Z,1.80
2019-01-30T21:22:21.463Z,1.90
2019-01-30T21:24:47.960Z,1.90
2019-01-30T21:27:14.659Z,1.80
2019-01-30T21:29:41.190Z,1.70
2019-01-30T21:32:07.732Z,1.40
2019-01-30T21:34:34.235Z,1.70
2019-01-30T21:37:00.803Z,1.40
2019-01-30T21:39:27.317Z,1.30
2019-01-30T21:41:53.980Z,1.50
2019-01-30T21:44:20.548Z,1.40
2019-01-30T21:46:47.096Z,1.50
2019-01-30T21:49:13.687Z,1.50
2019-01-30T21:51:40.231Z,1.50
2019-01-30T21:54:06.798Z,1.50
2019-01-30T21:56:33.304Z,1.50
2019-01-30T21:58:59.871Z,1.40
2019-01-30T22:01:26.388Z,1.40
2019-01-30T22:03:52.924Z,1.50
2019-01-30T22:06:19.544Z,1.30
2019-01-30T22:08:46.146Z,1.40
2019-01-30T22:11:12.700Z,1.40
2019-01-30T22:13:39.264Z,1.40
2019-01-30T22:16:05.786Z,1.30
2019-01-30T22:18:32.312Z,1.10
2019-01-30T22:20:58.880Z,1.20
2019-01-30T22:23:25.504Z,1.30
2019-01-30T22:25:52.039Z,1.10
2019-01-30T22:28:18.587Z,1.10
2019-01-30T22:30:45.123Z,1.10
2019-01-30T22:33:11.652Z,1.30
2019-01-30T22:35:38.195Z,1.20
2019-01-30T22:38:12.188Z,1.20
2019-01-30T22:40:33.075Z,1.20
2019-01-30T22:42:59.636Z,1.40
2019-01-30T22:45:26.172Z,1.30
2019-01-30T22:47:52.728Z,1.40
2019-01-30T22:50:19.965Z,1.10
2019-01-30T22:52:46.621Z,1.30
2019-01-30T22:55:15.176Z,1.20
2019-01-30T22:57:41.714Z,1.20
2019-01-30T23:00:31.719Z,1.30
2019-01-30T23:02:58.363Z,1.30
2019-01-30T23:05:45.333Z,1.40
2019-01-30T23:08:22.913Z,1.30
2019-01-30T23:11:09.540Z,1.50
2019-01-30T23:13:45.884Z,1.50
2019-01-30T23:16:25.406Z,1.50
2019-01-30T23:19:18.538Z,1.30
2019-01-30T23:21:48.671Z,1.30
2019-01-30T23:24:49.295Z,1.30
2019-01-30T23:27:19.444Z,1.40
2019-01-30T23:29:55.282Z,1.40
2019-01-30T23:32:43.524Z,1.60
2019-01-30T23:35:28.278Z,1.40
2019-01-30T23:38:01.263Z,1.40
2019-01-30T23:40:54.072Z,1.50
2019-01-30T23:43:41.760Z,1.30
2019-01-30T23:46:14.728Z,1.40
2019-01-30T23:49:10.956Z,1.40
2019-01-30T23:52:06.927Z,1.20
2019-01-30T23:54:48.871Z,1.40
2019-01-30T23:57:37.107Z,1.40
